sensor_id;sensor_type;location;lat;lon;timestamp;pressure;altitude;pressure_sealevel;temperature;humidity
73558;BME280;61829;53.286;10.434;2023-12-20T00:00:57;100716.19;;;6.75;99.74
73558;BME280;61829;53.286;10.434;2023-12-20T00:03:38;100722.53;;;6.74;99.69
73558;BME280;61829;53.286;10.434;2023-12-20T00:06:04;100719.34;;;6.70;99.46
73558;BME280;61829;53.286;10.434;2023-12-20T00:08:30;100723.03;;;6.69;99.62
73558;BME280;61829;53.286;10.434;2023-12-20T00:10:57;100735.91;;;6.66;99.34
73558;BME280;61829;53.286;10.434;2023-12-20T00:13:22;100724.50;;;6.64;99.69
73558;BME280;61829;53.286;10.434;2023-12-20T00:15:48;100727.50;;;6.61;99.45
73558;BME280;61829;53.286;10.434;2023-12-20T00:18:14;100730.50;;;6.58;99.77
73558;BME280;61829;53.286;10.434;2023-12-20T00:20:42;100729.81;;;6.56;99.24
73558;BME280;61829;53.286;10.434;2023-12-20T00:23:07;100724.81;;;6.52;99.42
73558;BME280;61829;53.286;10.434;2023-12-20T00:25:34;100725.97;;;6.50;99.34
73558;BME280;61829;53.286;10.434;2023-12-20T00:28:01;100725.28;;;6.48;99.44
73558;BME280;61829;53.286;10.434;2023-12-20T00:30:28;100719.41;;;6.44;99.86
73558;BME280;61829;53.286;10.434;2023-12-20T00:32:55;100719.59;;;6.43;99.35
73558;BME280;61829;53.286;10.434;2023-12-20T00:35:23;100716.22;;;6.41;99.61
73558;BME280;61829;53.286;10.434;2023-12-20T00:37:49;100717.53;;;6.37;99.63
73558;BME280;61829;53.286;10.434;2023-12-20T00:40:15;100723.19;;;6.34;99.12
73558;BME280;61829;53.286;10.434;2023-12-20T00:42:41;100711.97;;;6.30;99.11
73558;BME280;61829;53.286;10.434;2023-12-20T00:45:08;100719.66;;;6.25;98.96
73558;BME280;61829;53.286;10.434;2023-12-20T00:47:34;100713.78;;;6.21;99.56
73558;BME280;61829;53.286;10.434;2023-12-20T00:50:00;100717.78;;;6.17;99.67
73558;BME280;61829;53.286;10.434;2023-12-20T00:52:26;100715.25;;;6.16;98.93
73558;BME280;61829;53.286;10.434;2023-12-20T00:54:52;100708.38;;;6.13;98.97
73558;BME280;61829;53.286;10.434;2023-12-20T00:57:18;100714.88;;;6.11;99.09
73558;BME280;61829;53.286;10.434;2023-12-20T00:59:44;100713.38;;;6.08;99.59
73558;BME280;61829;53.286;10.434;2023-12-20T01:02:10;100709.34;;;6.04;99.44
73558;BME280;61829;53.286;10.434;2023-12-20T01:04:36;100707.13;;;5.99;99.88
73558;BME280;61829;53.286;10.434;2023-12-20T01:07:02;100707.31;;;5.98;99.26
73558;BME280;61829;53.286;10.434;2023-12-20T01:09:28;100715.47;;;5.96;99.33
73558;BME280;61829;53.286;10.434;2023-12-20T01:11:54;100712.25;;;5.93;99.42
73558;BME280;61829;53.286;10.434;2023-12-20T01:14:20;100705.25;;;5.92;99.64
73558;BME280;61829;53.286;10.434;2023-12-20T01:16:46;100708.06;;;5.90;100.00
73558;BME280;61829;53.286;10.434;2023-12-20T01:19:13;100705.38;;;5.90;99.51
73558;BME280;61829;53.286;10.434;2023-12-20T01:21:42;100711.41;;;5.92;99.51
73558;BME280;61829;53.286;10.434;2023-12-20T01:24:08;100702.56;;;5.92;99.98
73558;BME280;61829;53.286;10.434;2023-12-20T01:26:34;100703.25;;;5.94;99.67
73558;BME280;61829;53.286;10.434;2023-12-20T01:29:03;100691.53;;;6.21;99.54
73558;BME280;61829;53.286;10.434;2023-12-20T01:31:29;100686.78;;;6.41;97.58
73558;BME280;61829;53.286;10.434;2023-12-20T01:33:55;100693.31;;;6.46;97.68
73558;BME280;61829;53.286;10.434;2023-12-20T01:36:21;100683.81;;;6.52;97.05
73558;BME280;61829;53.286;10.434;2023-12-20T01:38:47;100684.66;;;6.52;97.22
73558;BME280;61829;53.286;10.434;2023-12-20T01:41:13;100691.84;;;6.52;97.11
73558;BME280;61829;53.286;10.434;2023-12-20T01:43:39;100681.97;;;6.52;96.82
73558;BME280;61829;53.286;10.434;2023-12-20T01:46:05;100685.81;;;6.50;96.61
73558;BME280;61829;53.286;10.434;2023-12-20T01:48:31;100683.31;;;6.48;96.56
73558;BME280;61829;53.286;10.434;2023-12-20T01:50:59;100683.31;;;6.48;96.53
73558;BME280;61829;53.286;10.434;2023-12-20T01:53:27;100682.44;;;6.48;96.39
73558;BME280;61829;53.286;10.434;2023-12-20T01:55:55;100675.56;;;6.45;96.09
73558;BME280;61829;53.286;10.434;2023-12-20T01:58:22;100679.25;;;6.44;95.83
73558;BME280;61829;53.286;10.434;2023-12-20T02:00:48;100669.22;;;6.38;95.70
73558;BME280;61829;53.286;10.434;2023-12-20T02:03:15;100667.69;;;6.36;95.32
73558;BME280;61829;53.286;10.434;2023-12-20T02:05:42;100657.31;;;6.33;95.45
73558;BME280;61829;53.286;10.434;2023-12-20T02:08:09;100655.78;;;6.30;94.93
73558;BME280;61829;53.286;10.434;2023-12-20T02:10:35;100648.22;;;6.25;95.27
73558;BME280;61829;53.286;10.434;2023-12-20T02:13:01;100643.91;;;6.24;95.33
73558;BME280;61829;53.286;10.434;2023-12-20T02:15:27;100645.06;;;6.22;95.50
73558;BME280;61829;53.286;10.434;2023-12-20T02:17:54;100650.59;;;6.20;95.18
73558;BME280;61829;53.286;10.434;2023-12-20T02:20:20;100639.34;;;6.17;95.83
73558;BME280;61829;53.286;10.434;2023-12-20T02:22:46;100631.63;;;6.14;95.55
73558;BME280;61829;53.286;10.434;2023-12-20T02:25:12;100639.16;;;6.10;95.51
73558;BME280;61829;53.286;10.434;2023-12-20T02:27:39;100643.66;;;6.10;95.24
73558;BME280;61829;53.286;10.434;2023-12-20T02:30:06;100645.50;;;6.09;95.40
73558;BME280;61829;53.286;10.434;2023-12-20T02:32:32;100649.34;;;6.06;95.36
73558;BME280;61829;53.286;10.434;2023-12-20T02:34:58;100645.16;;;6.04;95.83
73558;BME280;61829;53.286;10.434;2023-12-20T02:37:24;100642.16;;;6.07;95.41
73558;BME280;61829;53.286;10.434;2023-12-20T02:39:50;100639.47;;;6.07;96.05
73558;BME280;61829;53.286;10.434;2023-12-20T02:42:16;100645.34;;;6.11;95.61
73558;BME280;61829;53.286;10.434;2023-12-20T02:44:42;100643.66;;;6.10;95.50
73558;BME280;61829;53.286;10.434;2023-12-20T02:47:08;100649.16;;;6.08;95.24
73558;BME280;61829;53.286;10.434;2023-12-20T02:49:33;100637.81;;;6.06;95.67
73558;BME280;61829;53.286;10.434;2023-12-20T02:52:00;100636.63;;;6.08;95.51
73558;BME280;61829;53.286;10.434;2023-12-20T02:54:25;100632.41;;;5.98;95.73
73558;BME280;61829;53.286;10.434;2023-12-20T02:56:51;100626.69;;;5.93;95.70
73558;BME280;61829;53.286;10.434;2023-12-20T02:59:17;100627.31;;;5.87;96.76
73558;BME280;61829;53.286;10.434;2023-12-20T03:01:45;100628.84;;;5.89;96.31
73558;BME280;61829;53.286;10.434;2023-12-20T03:04:11;100624.88;;;5.93;96.07
73558;BME280;61829;53.286;10.434;2023-12-20T03:06:38;100625.84;;;5.92;95.84
73558;BME280;61829;53.286;10.434;2023-12-20T03:09:04;100622.34;;;5.92;96.17
73558;BME280;61829;53.286;10.434;2023-12-20T03:11:31;100618.50;;;5.94;95.67
73558;BME280;61829;53.286;10.434;2023-12-20T03:13:57;100614.84;;;5.95;95.59
73558;BME280;61829;53.286;10.434;2023-12-20T03:16:23;100614.03;;;5.95;96.16
73558;BME280;61829;53.286;10.434;2023-12-20T03:18:49;100609.31;;;5.97;95.89
73558;BME280;61829;53.286;10.434;2023-12-20T03:21:16;100602.16;;;5.97;96.04
73558;BME280;61829;53.286;10.434;2023-12-20T03:23:42;100596.81;;;5.97;95.85
73558;BME280;61829;53.286;10.434;2023-12-20T03:26:08;100592.94;;;6.00;94.91
73558;BME280;61829;53.286;10.434;2023-12-20T03:28:34;100585.94;;;5.99;95.11
73558;BME280;61829;53.286;10.434;2023-12-20T03:31:02;100575.41;;;5.97;94.57
73558;BME280;61829;53.286;10.434;2023-12-20T03:33:28;100581.94;;;5.95;94.46
73558;BME280;61829;53.286;10.434;2023-12-20T03:35:54;100578.50;;;5.84;94.83
73558;BME280;61829;53.286;10.434;2023-12-20T03:38:21;100572.69;;;5.89;94.70
73558;BME280;61829;53.286;10.434;2023-12-20T03:40:50;100562.50;;;5.93;94.21
73558;BME280;61829;53.286;10.434;2023-12-20T03:43:16;100566.84;;;5.94;95.01
73558;BME280;61829;53.286;10.434;2023-12-20T03:45:42;100562.50;;;5.93;94.83
73558;BME280;61829;53.286;10.434;2023-12-20T03:48:08;100563.34;;;5.93;94.97
73558;BME280;61829;53.286;10.434;2023-12-20T03:50:35;100562.34;;;5.94;95.03
73558;BME280;61829;53.286;10.434;2023-12-20T03:53:01;100570.22;;;5.96;95.06
73558;BME280;61829;53.286;10.434;2023-12-20T03:55:27;100564.72;;;5.97;94.99
73558;BME280;61829;53.286;10.434;2023-12-20T03:57:53;100566.06;;;6.01;95.02
73558;BME280;61829;53.286;10.434;2023-12-20T04:00:19;100560.38;;;6.04;94.23
73558;BME280;61829;53.286;10.434;2023-12-20T04:02:45;100569.25;;;6.05;94.59
73558;BME280;61829;53.286;10.434;2023-12-20T04:05:12;100553.88;;;6.07;94.25
73558;BME280;61829;53.286;10.434;2023-12-20T04:07:38;100555.53;;;6.08;93.94
73558;BME280;61829;53.286;10.434;2023-12-20T04:10:05;100560.88;;;6.08;94.08
73558;BME280;61829;53.286;10.434;2023-12-20T04:12:31;100560.88;;;6.08;94.91
73558;BME280;61829;53.286;10.434;2023-12-20T04:14:58;100546.03;;;6.14;94.48
73558;BME280;61829;53.286;10.434;2023-12-20T04:17:23;100543.03;;;6.17;94.18
73558;BME280;61829;53.286;10.434;2023-12-20T04:19:50;100537.50;;;6.10;94.01
73558;BME280;61829;53.286;10.434;2023-12-20T04:22:19;100537.00;;;6.06;94.15
73558;BME280;61829;53.286;10.434;2023-12-20T04:24:45;100533.31;;;6.07;94.72
73558;BME280;61829;53.286;10.434;2023-12-20T04:27:11;100531.00;;;6.13;94.40
73558;BME280;61829;53.286;10.434;2023-12-20T04:29:38;100532.31;;;6.08;94.75
73558;BME280;61829;53.286;10.434;2023-12-20T04:32:04;100530.66;;;6.16;94.83
73558;BME280;61829;53.286;10.434;2023-12-20T04:34:31;100521.94;;;6.14;94.53
73558;BME280;61829;53.286;10.434;2023-12-20T04:36:57;100526.47;;;6.13;94.26
73558;BME280;61829;53.286;10.434;2023-12-20T04:39:23;100530.66;;;6.16;94.58
73558;BME280;61829;53.286;10.434;2023-12-20T04:41:49;100519.13;;;6.15;94.44
73558;BME280;61829;53.286;10.434;2023-12-20T04:44:16;100517.28;;;6.16;94.77
73558;BME280;61829;53.286;10.434;2023-12-20T04:46:41;100513.59;;;6.17;94.43
73558;BME280;61829;53.286;10.434;2023-12-20T04:49:08;100520.47;;;6.19;94.12
73558;BME280;61829;53.286;10.434;2023-12-20T04:51:34;100511.59;;;6.19;94.64
73558;BME280;61829;53.286;10.434;2023-12-20T04:54:01;100504.06;;;6.22;94.02
73558;BME280;61829;53.286;10.434;2023-12-20T04:56:28;100497.06;;;6.21;93.87
73558;BME280;61829;53.286;10.434;2023-12-20T04:58:54;100498.91;;;6.21;94.05
73558;BME280;61829;53.286;10.434;2023-12-20T05:01:20;100487.88;;;6.24;94.09
73558;BME280;61829;53.286;10.434;2023-12-20T05:03:47;100490.38;;;6.25;93.92
73558;BME280;61829;53.286;10.434;2023-12-20T05:06:13;100497.06;;;6.29;94.58
73558;BME280;61829;53.286;10.434;2023-12-20T05:08:39;100491.72;;;6.29;94.47
73558;BME280;61829;53.286;10.434;2023-12-20T05:11:05;100492.56;;;6.30;94.14
73558;BME280;61829;53.286;10.434;2023-12-20T05:13:31;100492.06;;;6.35;94.46
73558;BME280;61829;53.286;10.434;2023-12-20T05:15:57;100494.91;;;6.33;94.43
73558;BME280;61829;53.286;10.434;2023-12-20T05:18:23;100495.59;;;6.35;94.24
73558;BME280;61829;53.286;10.434;2023-12-20T05:20:50;100489.06;;;6.38;94.01
73558;BME280;61829;53.286;10.434;2023-12-20T05:23:17;100494.41;;;6.38;94.35
73558;BME280;61829;53.286;10.434;2023-12-20T05:25:43;100493.91;;;6.42;94.18
73558;BME280;61829;53.286;10.434;2023-12-20T05:28:09;100488.72;;;6.41;93.97
73558;BME280;61829;53.286;10.434;2023-12-20T05:30:35;100488.22;;;6.45;93.95
73558;BME280;61829;53.286;10.434;2023-12-20T05:33:02;100486.53;;;6.44;94.25
73558;BME280;61829;53.286;10.434;2023-12-20T05:35:28;100493.25;;;6.40;94.41
73558;BME280;61829;53.286;10.434;2023-12-20T05:37:54;100491.06;;;6.44;94.63
73558;BME280;61829;53.286;10.434;2023-12-20T05:40:20;100484.06;;;6.43;94.89
73558;BME280;61829;53.286;10.434;2023-12-20T05:42:46;100485.22;;;6.40;94.51
73558;BME280;61829;53.286;10.434;2023-12-20T05:45:20;100487.22;;;6.46;94.83
73558;BME280;61829;53.286;10.434;2023-12-20T05:47:49;100485.53;;;6.53;94.77
73558;BME280;61829;53.286;10.434;2023-12-20T05:50:15;100486.56;;;6.52;94.67
73558;BME280;61829;53.286;10.434;2023-12-20T05:52:41;100497.25;;;6.61;93.89
73558;BME280;61829;53.286;10.434;2023-12-20T05:55:08;100489.56;;;6.66;94.11
73558;BME280;61829;53.286;10.434;2023-12-20T05:57:35;100480.53;;;6.67;93.94
73558;BME280;61829;53.286;10.434;2023-12-20T06:00:01;100487.88;;;6.65;94.06
73558;BME280;61829;53.286;10.434;2023-12-20T06:02:30;100476.38;;;6.40;94.74
73558;BME280;61829;53.286;10.434;2023-12-20T06:04:56;100473.81;;;6.30;95.19
73558;BME280;61829;53.286;10.434;2023-12-20T06:07:23;100471.63;;;6.25;96.03
73558;BME280;61829;53.286;10.434;2023-12-20T06:09:49;100475.00;;;6.27;95.43
73558;BME280;61829;53.286;10.434;2023-12-20T06:12:15;100467.97;;;6.26;95.19
73558;BME280;61829;53.286;10.434;2023-12-20T06:14:41;100469.63;;;6.27;95.45
73558;BME280;61829;53.286;10.434;2023-12-20T06:17:07;100461.63;;;6.27;95.56
73558;BME280;61829;53.286;10.434;2023-12-20T06:19:33;100452.75;;;6.27;95.39
73558;BME280;61829;53.286;10.434;2023-12-20T06:21:59;100452.59;;;6.28;94.95
73558;BME280;61829;53.286;10.434;2023-12-20T06:24:25;100459.63;;;6.29;94.83
73558;BME280;61829;53.286;10.434;2023-12-20T06:26:54;100454.94;;;6.32;94.82
73558;BME280;61829;53.286;10.434;2023-12-20T06:29:20;100446.72;;;6.33;95.03
73558;BME280;61829;53.286;10.434;2023-12-20T06:31:47;100454.59;;;6.35;94.89
73558;BME280;61829;53.286;10.434;2023-12-20T06:34:12;100450.91;;;6.36;95.25
73558;BME280;61829;53.286;10.434;2023-12-20T06:36:39;100453.94;;;6.41;94.60
73558;BME280;61829;53.286;10.434;2023-12-20T06:39:04;100447.56;;;6.42;94.90
73558;BME280;61829;53.286;10.434;2023-12-20T06:41:31;100436.88;;;6.42;94.85
73558;BME280;61829;53.286;10.434;2023-12-20T06:43:57;100432.88;;;6.38;94.11
73558;BME280;61829;53.286;10.434;2023-12-20T06:46:23;100435.34;;;6.39;94.06
73558;BME280;61829;53.286;10.434;2023-12-20T06:48:49;100437.53;;;6.44;94.22
73558;BME280;61829;53.286;10.434;2023-12-20T06:51:16;100431.03;;;6.38;94.57
73558;BME280;61829;53.286;10.434;2023-12-20T06:53:43;100437.53;;;6.44;93.86
73558;BME280;61829;53.286;10.434;2023-12-20T06:56:10;100438.03;;;6.47;93.97
73558;BME280;61829;53.286;10.434;2023-12-20T06:58:37;100431.69;;;6.48;93.91
73558;BME280;61829;53.286;10.434;2023-12-20T07:01:03;100423.13;;;6.45;93.61
73558;BME280;61829;53.286;10.434;2023-12-20T07:03:30;100428.50;;;6.45;93.88
73558;BME280;61829;53.286;10.434;2023-12-20T07:05:56;100432.88;;;6.46;93.98
73558;BME280;61829;53.286;10.434;2023-12-20T07:08:22;100428.34;;;6.46;93.83
73558;BME280;61829;53.286;10.434;2023-12-20T07:10:48;100410.78;;;6.44;93.53
73558;BME280;61829;53.286;10.434;2023-12-20T07:13:14;100421.81;;;6.41;93.82
73558;BME280;61829;53.286;10.434;2023-12-20T07:15:41;100418.13;;;6.42;93.47
73558;BME280;61829;53.286;10.434;2023-12-20T07:18:19;100408.59;;;6.47;93.28
73558;BME280;61829;53.286;10.434;2023-12-20T07:20:45;100407.59;;;6.48;93.37
73558;BME280;61829;53.286;10.434;2023-12-20T07:23:11;100412.09;;;6.48;92.94
73558;BME280;61829;53.286;10.434;2023-12-20T07:25:37;100417.28;;;6.49;93.33
73558;BME280;61829;53.286;10.434;2023-12-20T07:28:03;100412.09;;;6.48;93.30
73558;BME280;61829;53.286;10.434;2023-12-20T07:30:30;100415.44;;;6.50;93.38
73558;BME280;61829;53.286;10.434;2023-12-20T07:32:56;100411.75;;;6.51;93.56
73558;BME280;61829;53.286;10.434;2023-12-20T07:35:26;100416.28;;;6.50;93.58
73558;BME280;61829;53.286;10.434;2023-12-20T07:37:51;100416.28;;;6.50;93.72
73558;BME280;61829;53.286;10.434;2023-12-20T07:40:18;100416.13;;;6.52;93.60
73558;BME280;61829;53.286;10.434;2023-12-20T07:42:44;100412.63;;;6.51;94.11
73558;BME280;61829;53.286;10.434;2023-12-20T07:45:10;100418.47;;;6.55;94.15
73558;BME280;61829;53.286;10.434;2023-12-20T07:47:37;100416.47;;;6.57;93.54
73558;BME280;61829;53.286;10.434;2023-12-20T07:50:03;100399.53;;;6.57;93.67
73558;BME280;61829;53.286;10.434;2023-12-20T07:52:29;100414.78;;;6.56;93.47
73558;BME280;61829;53.286;10.434;2023-12-20T07:54:56;100412.78;;;6.58;93.71
73558;BME280;61829;53.286;10.434;2023-12-20T07:57:21;100395.69;;;6.59;93.80
73558;BME280;61829;53.286;10.434;2023-12-20T07:59:48;100404.06;;;6.56;93.83
73558;BME280;61829;53.286;10.434;2023-12-20T08:02:14;100392.38;;;6.57;93.45
73558;BME280;61829;53.286;10.434;2023-12-20T08:04:41;100396.56;;;6.60;93.39
73558;BME280;61829;53.286;10.434;2023-12-20T08:07:07;100391.69;;;6.63;92.94
73558;BME280;61829;53.286;10.434;2023-12-20T08:09:33;100394.53;;;6.62;93.02
73558;BME280;61829;53.286;10.434;2023-12-20T08:12:02;100397.03;;;6.63;93.30
73558;BME280;61829;53.286;10.434;2023-12-20T08:14:28;100395.19;;;6.64;93.20
73558;BME280;61829;53.286;10.434;2023-12-20T08:16:55;100387.00;;;6.65;93.44
73558;BME280;61829;53.286;10.434;2023-12-20T08:19:21;100384.13;;;6.67;94.28
73558;BME280;61829;53.286;10.434;2023-12-20T08:21:47;100393.84;;;6.68;93.90
73558;BME280;61829;53.286;10.434;2023-12-20T08:24:13;100390.66;;;6.64;94.42
73558;BME280;61829;53.286;10.434;2023-12-20T08:26:39;100386.34;;;6.63;94.77
73558;BME280;61829;53.286;10.434;2023-12-20T08:29:06;100385.31;;;6.64;94.93
73558;BME280;61829;53.286;10.434;2023-12-20T08:31:32;100390.66;;;6.64;95.38
73558;BME280;61829;53.286;10.434;2023-12-20T08:33:58;100377.97;;;6.66;95.62
73558;BME280;61829;53.286;10.434;2023-12-20T08:36:24;100370.06;;;6.65;95.49
73558;BME280;61829;53.286;10.434;2023-12-20T08:38:51;100360.53;;;6.62;95.98
73558;BME280;61829;53.286;10.434;2023-12-20T08:41:17;100351.53;;;6.63;95.67
73558;BME280;61829;53.286;10.434;2023-12-20T08:43:43;100349.34;;;6.59;96.00
73558;BME280;61829;53.286;10.434;2023-12-20T08:46:17;100334.63;;;6.63;95.87
73558;BME280;61829;53.286;10.434;2023-12-20T08:48:43;100337.94;;;6.65;95.82
73558;BME280;61829;53.286;10.434;2023-12-20T08:51:10;100338.81;;;6.65;95.68
73558;BME280;61829;53.286;10.434;2023-12-20T08:53:37;100332.44;;;6.66;95.62
73558;BME280;61829;53.286;10.434;2023-12-20T08:56:04;100332.25;;;6.68;95.40
73558;BME280;61829;53.286;10.434;2023-12-20T08:58:30;100330.25;;;6.70;95.13
73558;BME280;61829;53.286;10.434;2023-12-20T09:00:56;100335.09;;;6.74;95.19
73558;BME280;61829;53.286;10.434;2023-12-20T09:03:23;100313.31;;;6.78;95.03
73558;BME280;61829;53.286;10.434;2023-12-20T09:05:49;100313.50;;;6.76;94.31
73558;BME280;61829;53.286;10.434;2023-12-20T09:08:15;100311.13;;;6.81;93.93
73558;BME280;61829;53.286;10.434;2023-12-20T09:10:41;100313.31;;;6.86;93.84
73558;BME280;61829;53.286;10.434;2023-12-20T09:13:07;100306.78;;;6.88;93.82
73558;BME280;61829;53.286;10.434;2023-12-20T09:15:33;100311.94;;;6.90;93.38
73558;BME280;61829;53.286;10.434;2023-12-20T09:18:00;100307.91;;;6.94;93.59
73558;BME280;61829;53.286;10.434;2023-12-20T09:20:26;100303.88;;;6.98;93.55
73558;BME280;61829;53.286;10.434;2023-12-20T09:22:53;100320.75;;;6.98;94.01
73558;BME280;61829;53.286;10.434;2023-12-20T09:25:19;100310.75;;;6.92;94.44
73558;BME280;61829;53.286;10.434;2023-12-20T09:27:45;100311.63;;;6.85;94.72
73558;BME280;61829;53.286;10.434;2023-12-20T09:30:12;100322.31;;;6.85;95.59
73558;BME280;61829;53.286;10.434;2023-12-20T09:32:38;100310.31;;;6.81;95.85
73558;BME280;61829;53.286;10.434;2023-12-20T09:35:04;100308.47;;;6.73;95.90
73558;BME280;61829;53.286;10.434;2023-12-20T09:37:32;100303.13;;;6.73;95.89
73558;BME280;61829;53.286;10.434;2023-12-20T09:39:58;100302.28;;;6.72;96.40
73558;BME280;61829;53.286;10.434;2023-12-20T09:42:34;100293.59;;;6.70;96.57
73558;BME280;61829;53.286;10.434;2023-12-20T09:45:08;100280.88;;;6.72;97.10
73558;BME280;61829;53.286;10.434;2023-12-20T09:47:35;100288.91;;;6.72;97.51
73558;BME280;61829;53.286;10.434;2023-12-20T09:50:02;100301.47;;;6.72;97.78
73558;BME280;61829;53.286;10.434;2023-12-20T09:52:29;100317.53;;;6.72;97.86
73558;BME280;61829;53.286;10.434;2023-12-20T09:54:56;100323.03;;;6.70;98.07
73558;BME280;61829;53.286;10.434;2023-12-20T09:57:22;100320.38;;;6.70;98.36
73558;BME280;61829;53.286;10.434;2023-12-20T09:59:48;100331.78;;;6.64;98.65
73558;BME280;61829;53.286;10.434;2023-12-20T10:02:16;100325.97;;;6.44;97.84
73558;BME280;61829;53.286;10.434;2023-12-20T10:04:47;100311.75;;;6.36;97.15
73558;BME280;61829;53.286;10.434;2023-12-20T10:07:16;100281.66;;;6.34;96.75
73558;BME280;61829;53.286;10.434;2023-12-20T10:09:42;100300.56;;;6.32;96.17
73558;BME280;61829;53.286;10.434;2023-12-20T10:12:10;100309.44;;;6.24;95.89
73558;BME280;61829;53.286;10.434;2023-12-20T10:14:35;100315.97;;;6.22;95.72
73558;BME280;61829;53.286;10.434;2023-12-20T10:17:06;100317.13;;;6.19;95.75
73558;BME280;61829;53.286;10.434;2023-12-20T10:19:32;100298.41;;;6.19;95.49
73558;BME280;61829;53.286;10.434;2023-12-20T10:22:04;100314.47;;;6.19;95.60
73558;BME280;61829;53.286;10.434;2023-12-20T10:24:30;100305.44;;;6.20;95.83
73558;BME280;61829;53.286;10.434;2023-12-20T10:27:07;100301.91;;;6.20;95.13
73558;BME280;61829;53.286;10.434;2023-12-20T10:29:34;100298.41;;;6.19;95.26
73558;BME280;61829;53.286;10.434;2023-12-20T10:34:46;100301.91;;;6.28;94.99
73558;BME280;61829;53.286;10.434;2023-12-20T10:37:13;100296.22;;;6.31;95.18
73558;BME280;61829;53.286;10.434;2023-12-20T10:39:38;100284.19;;;6.35;95.40
73558;BME280;61829;53.286;10.434;2023-12-20T10:42:06;100292.88;;;6.37;95.11
73558;BME280;61829;53.286;10.434;2023-12-20T10:44:32;100306.41;;;6.36;94.93
73558;BME280;61829;53.286;10.434;2023-12-20T10:46:58;100309.41;;;6.41;95.02
73558;BME280;61829;53.286;10.434;2023-12-20T10:49:25;100306.41;;;6.44;94.71
73558;BME280;61829;53.286;10.434;2023-12-20T10:51:52;100302.91;;;6.43;94.02
73558;BME280;61829;53.286;10.434;2023-12-20T10:54:20;100302.53;;;6.46;93.94
73558;BME280;61829;53.286;10.434;2023-12-20T10:56:46;100288.50;;;6.44;93.79
73558;BME280;61829;53.286;10.434;2023-12-20T10:59:14;100319.28;;;6.40;93.42
73558;BME280;61829;53.286;10.434;2023-12-20T11:01:50;100301.53;;;6.39;93.13
73558;BME280;61829;53.286;10.434;2023-12-20T11:04:21;100292.00;;;6.45;92.60
73558;BME280;61829;53.286;10.434;2023-12-20T11:06:58;100291.69;;;6.40;92.57
73558;BME280;61829;53.286;10.434;2023-12-20T11:09:33;100291.03;;;6.38;92.32
73558;BME280;61829;53.286;10.434;2023-12-20T11:12:28;100291.69;;;6.40;92.62
73558;BME280;61829;53.286;10.434;2023-12-20T11:14:54;100282.31;;;6.36;92.36
73558;BME280;61829;53.286;10.434;2023-12-20T11:17:23;100280.00;;;6.33;92.54
73558;BME280;61829;53.286;10.434;2023-12-20T11:22:20;100271.63;;;6.36;92.72
73558;BME280;61829;53.286;10.434;2023-12-20T11:24:47;100267.28;;;6.43;93.21
73558;BME280;61829;53.286;10.434;2023-12-20T11:27:14;100281.81;;;6.48;93.13
73558;BME280;61829;53.286;10.434;2023-12-20T11:29:41;100276.94;;;6.52;93.59
73558;BME280;61829;53.286;10.434;2023-12-20T11:34:59;100269.59;;;6.46;92.54
73558;BME280;61829;53.286;10.434;2023-12-20T11:37:30;100271.75;;;6.42;92.23
73558;BME280;61829;53.286;10.434;2023-12-20T11:40:17;100266.94;;;6.46;92.40
73558;BME280;61829;53.286;10.434;2023-12-20T11:42:46;100274.59;;;6.49;92.24
73558;BME280;61829;53.286;10.434;2023-12-20T11:45:16;100271.94;;;6.49;91.97
73558;BME280;61829;53.286;10.434;2023-12-20T11:47:46;100277.94;;;6.51;91.80
73558;BME280;61829;53.286;10.434;2023-12-20T11:50:12;100279.28;;;6.47;91.33
73558;BME280;61829;53.286;10.434;2023-12-20T11:52:38;100274.97;;;6.46;91.17
73558;BME280;61829;53.286;10.434;2023-12-20T11:55:04;100266.94;;;6.46;91.92
73558;BME280;61829;53.286;10.434;2023-12-20T11:57:31;100266.25;;;6.44;91.22
73558;BME280;61829;53.286;10.434;2023-12-20T11:59:58;100266.72;;;6.47;91.36
73558;BME280;61829;53.286;10.434;2023-12-20T12:02:24;100273.94;;;6.47;91.67
73558;BME280;61829;53.286;10.434;2023-12-20T12:08:21;100270.53;;;6.61;91.21
73558;BME280;61829;53.286;10.434;2023-12-20T12:10:47;100277.41;;;6.64;91.33
73558;BME280;61829;53.286;10.434;2023-12-20T12:13:14;100263.50;;;6.68;91.17
73558;BME280;61829;53.286;10.434;2023-12-20T12:15:40;100277.50;;;6.79;91.21
73558;BME280;61829;53.286;10.434;2023-12-20T12:18:08;100275.50;;;6.81;90.83
73558;BME280;61829;53.286;10.434;2023-12-20T12:20:34;100266.75;;;6.87;90.04
73558;BME280;61829;53.286;10.434;2023-12-20T12:23:02;100261.75;;;6.84;89.45
73558;BME280;61829;53.286;10.434;2023-12-20T12:25:33;100256.03;;;6.87;89.70
73558;BME280;61829;53.286;10.434;2023-12-20T12:28:01;100244.31;;;6.88;88.99
73558;BME280;61829;53.286;10.434;2023-12-20T12:30:27;100256.72;;;6.89;89.49
73558;BME280;61829;53.286;10.434;2023-12-20T12:32:55;100254.19;;;6.87;89.99
73558;BME280;61829;53.286;10.434;2023-12-20T12:35:22;100265.41;;;6.91;90.03
73558;BME280;61829;53.286;10.434;2023-12-20T12:37:48;100253.47;;;6.93;90.10
73558;BME280;61829;53.286;10.434;2023-12-20T12:40:15;100249.63;;;6.96;89.78
73558;BME280;61829;53.286;10.434;2023-12-20T12:42:44;100256.66;;;6.97;89.49
73558;BME280;61829;53.286;10.434;2023-12-20T12:45:11;100249.50;;;6.89;88.79
73558;BME280;61829;53.286;10.434;2023-12-20T12:47:37;100246.66;;;6.91;88.39
73558;BME280;61829;53.286;10.434;2023-12-20T12:50:04;100252.53;;;6.86;87.62
73558;BME280;61829;53.286;10.434;2023-12-20T12:52:31;100253.25;;;6.80;87.05
73558;BME280;61829;53.286;10.434;2023-12-20T12:54:57;100257.75;;;6.80;86.84
73558;BME280;61829;53.286;10.434;2023-12-20T12:57:23;100258.75;;;6.79;87.01
73558;BME280;61829;53.286;10.434;2023-12-20T12:59:49;100255.94;;;6.72;86.52